Time;durP1;ratioP1;P1;durP2;ratioP2;P2;SDS_P1;SDS_P2;PMS_P1;PMS_P2;Temp;Humidity;BMP_temperature;BMP_pressure;BME280_temperature;BME280_humidity;BME280_pressure;Samples;Min_cycle;Max_cycle;Signal;HPM_P1;HPM_P2
2022/06/09 00:00:58;;;;;;;8.35;2.85;;;14.50;99.90;;;;;;5091326;28;20535;-67
2022/06/09 00:03:40;;;;;;;8.02;3.05;;;14.50;99.90;;;;;;5090296;28;20040;-68
2022/06/09 00:06:09;;;;;;;13.80;2.28;;;14.50;99.90;;;;;;5084723;28;20047;-67
2022/06/09 00:08:38;;;;;;;15.27;2.15;;;14.60;99.90;;;;;;5090172;28;20574;-66
2022/06/09 00:11:06;;;;;;;9.88;2.10;;;14.50;99.90;;;;;;5090295;28;20470;-67
2022/06/09 00:13:31;;;;;;;9.18;1.67;;;14.50;99.90;;;;;;5093196;28;20048;-67
2022/06/09 00:15:57;;;;;;;7.63;2.22;;;14.50;99.90;;;;;;5090408;28;20437;-67
2022/06/09 00:18:23;;;;;;;8.80;1.92;;;14.50;99.90;;;;;;5088948;28;20989;-67
2022/06/09 00:20:49;;;;;;;8.65;1.88;;;14.50;99.90;;;;;;5091972;28;20040;-67
2022/06/09 00:23:16;;;;;;;9.18;2.53;;;14.50;99.90;;;;;;5095398;28;20102;-68
2022/06/09 00:25:42;;;;;;;12.57;1.65;;;14.50;99.90;;;;;;5088778;28;20446;-66
2022/06/09 00:28:08;;;;;;;11.32;1.92;;;14.50;99.90;;;;;;5094220;28;20107;-67
2022/06/09 00:30:33;;;;;;;8.07;2.13;;;14.50;99.90;;;;;;5090229;28;20051;-67
2022/06/09 00:32:59;;;;;;;11.77;2.58;;;14.40;99.90;;;;;;5092458;28;20027;-67
2022/06/09 00:35:24;;;;;;;12.10;2.00;;;14.40;99.90;;;;;;5090330;28;20050;-67
2022/06/09 00:37:50;;;;;;;12.88;2.38;;;14.40;99.90;;;;;;5090263;28;20504;-67
2022/06/09 00:40:16;;;;;;;7.70;1.70;;;14.30;99.90;;;;;;5088799;28;20042;-67
2022/06/09 00:42:42;;;;;;;8.80;2.05;;;14.30;99.90;;;;;;5094612;28;20038;-67
2022/06/09 00:45:28;;;;;;;12.27;2.35;;;14.30;99.90;;;;;;5071566;28;20059;-67
2022/06/09 00:48:06;;;;;;;6.93;1.90;;;14.20;99.90;;;;;;5083934;28;20462;-67
2022/06/09 00:50:36;;;;;;;10.50;2.00;;;14.20;99.90;;;;;;5088884;28;20024;-67
2022/06/09 00:53:07;;;;;;;17.75;2.42;;;14.20;99.90;;;;;;5089606;28;20370;-67
2022/06/09 00:55:34;;;;;;;11.98;2.35;;;14.20;99.90;;;;;;5086161;28;20085;-67
2022/06/09 00:58:09;;;;;;;8.25;1.80;;;14.10;99.90;;;;;;5086021;28;20139;-66
2022/06/09 01:00:51;;;;;;;8.50;2.10;;;14.10;99.90;;;;;;5086589;28;20062;-68
2022/06/09 01:03:19;;;;;;;14.60;3.05;;;14.00;99.90;;;;;;5086447;28;20034;-67
2022/06/09 01:05:47;;;;;;;6.55;2.25;;;14.00;99.90;;;;;;5088122;28;20032;-67
2022/06/09 01:08:14;;;;;;;11.75;2.42;;;14.00;99.90;;;;;;5091168;28;20093;-67
2022/06/09 01:10:39;;;;;;;10.10;1.80;;;13.90;99.90;;;;;;5095056;28;20053;-68
2022/06/09 01:13:05;;;;;;;10.77;2.00;;;14.00;99.90;;;;;;5092897;28;20023;-67
2022/06/09 01:16:03;;;;;;;7.75;1.80;;;14.00;99.90;;;;;;5086647;28;20047;-67
2022/06/09 01:18:38;;;;;;;10.70;2.00;;;14.00;99.90;;;;;;5092088;28;20024;-67
2022/06/09 01:21:03;;;;;;;6.95;1.70;;;14.10;99.90;;;;;;5091301;28;20092;-67
2022/06/09 01:24:07;;;;;;;8.82;1.98;;;14.10;99.90;;;;;;5090134;28;20021;-67
2022/06/09 01:26:44;;;;;;;6.10;1.77;;;14.10;99.90;;;;;;5027078;28;20103;-67
2022/06/09 01:29:33;;;;;;;8.75;2.80;;;14.10;99.90;;;;;;5028060;28;20056;-67
2022/06/09 01:32:15;;;;;;;8.68;2.20;;;14.10;99.90;;;;;;5073432;28;20036;-67
2022/06/09 01:35:00;;;;;;;11.55;1.77;;;14.10;99.90;;;;;;5091738;28;20032;-66
2022/06/09 01:37:51;;;;;;;7.45;2.40;;;14.20;99.90;;;;;;5067011;28;20105;-67
2022/06/09 01:40:18;;;;;;;10.25;2.05;;;14.10;99.90;;;;;;5084185;28;20036;-67
2022/06/09 01:42:49;;;;;;;4.88;1.38;;;14.10;99.90;;;;;;5088168;28;20505;-68
2022/06/09 01:45:20;;;;;;;7.25;2.25;;;14.10;99.90;;;;;;5086960;28;20031;-68
2022/06/09 01:47:54;;;;;;;6.53;1.50;;;14.10;99.90;;;;;;5088752;28;20044;-68
2022/06/09 01:50:34;;;;;;;13.23;2.22;;;14.10;99.90;;;;;;5082250;28;20039;-66
2022/06/09 01:53:04;;;;;;;9.93;1.77;;;14.10;99.90;;;;;;5094967;28;20420;-67
2022/06/09 01:55:32;;;;;;;13.48;2.10;;;14.10;99.90;;;;;;5083585;28;20020;-67
2022/06/09 01:58:01;;;;;;;9.35;2.13;;;14.00;99.90;;;;;;5088066;28;20107;-67
2022/06/09 02:00:28;;;;;;;12.65;2.42;;;14.00;99.90;;;;;;5085291;28;20032;-67
2022/06/09 02:03:02;;;;;;;25.75;3.47;;;14.00;99.90;;;;;;5087045;28;20507;-68
2022/06/09 02:05:32;;;;;;;14.88;3.05;;;14.00;99.90;;;;;;5083536;28;20035;-67
2022/06/09 02:08:02;;;;;;;10.75;2.05;;;14.00;99.90;;;;;;5088024;28;20081;-67
2022/06/09 02:10:32;;;;;;;10.98;2.03;;;14.00;99.90;;;;;;5084824;28;20043;-67
2022/06/09 02:13:14;;;;;;;10.63;1.92;;;14.00;99.90;;;;;;5088191;28;20031;-67
2022/06/09 02:15:46;;;;;;;15.07;2.35;;;14.00;99.90;;;;;;5086944;28;20024;-66
2022/06/09 02:18:18;;;;;;;15.23;2.35;;;14.00;99.90;;;;;;5088740;28;20382;-66
2022/06/09 02:20:49;;;;;;;10.43;1.95;;;14.10;99.90;;;;;;5083370;28;20035;-67
2022/06/09 02:23:15;;;;;;;14.55;2.40;;;14.00;99.90;;;;;;5087460;28;20028;-67
2022/06/09 02:25:41;;;;;;;22.48;3.45;;;14.00;99.90;;;;;;5087567;28;20034;-67
2022/06/09 02:28:07;;;;;;;13.98;2.40;;;14.10;99.90;;;;;;5088215;28;20071;-67
2022/06/09 02:30:35;;;;;;;12.35;2.78;;;14.10;99.90;;;;;;5086189;28;20036;-68
2022/06/09 02:33:01;;;;;;;8.25;2.25;;;14.10;99.90;;;;;;5087781;28;20097;-67
2022/06/09 02:35:26;;;;;;;11.85;3.50;;;14.10;99.90;;;;;;5087535;28;20094;-67
2022/06/09 02:37:52;;;;;;;15.95;3.08;;;14.20;99.90;;;;;;5087261;28;20028;-67
2022/06/09 02:40:18;;;;;;;9.27;2.42;;;14.20;99.90;;;;;;5085977;28;20032;-66
2022/06/09 02:42:44;;;;;;;13.50;3.67;;;14.10;99.90;;;;;;5086513;28;20024;-68
2022/06/09 02:45:10;;;;;;;13.32;3.17;;;14.20;99.90;;;;;;5087071;28;20036;-66
2022/06/09 02:47:35;;;;;;;12.27;3.53;;;14.20;99.90;;;;;;5087859;28;20097;-67
2022/06/09 02:50:02;;;;;;;11.30;2.63;;;14.20;99.90;;;;;;5087389;28;20020;-67
2022/06/09 02:52:28;;;;;;;15.55;3.00;;;14.20;99.90;;;;;;5087578;28;20020;-67
2022/06/09 02:54:54;;;;;;;14.95;2.80;;;14.20;99.90;;;;;;5087210;28;20020;-67
2022/06/09 02:57:23;;;;;;;16.15;3.05;;;14.20;99.90;;;;;;5068736;28;20030;-67
2022/06/09 02:59:50;;;;;;;22.23;3.60;;;14.20;99.90;;;;;;5085973;28;20507;-67
2022/06/09 03:02:16;;;;;;;15.93;3.35;;;14.30;99.90;;;;;;5068100;28;20122;-66
2022/06/09 03:04:42;;;;;;;19.50;4.00;;;14.20;99.90;;;;;;5087841;28;20103;-68
2022/06/09 03:07:07;;;;;;;12.98;3.95;;;14.20;99.90;;;;;;5087421;28;20016;-66
2022/06/09 03:09:33;;;;;;;15.80;3.78;;;14.20;99.90;;;;;;5088009;28;20507;-67
2022/06/09 03:11:58;;;;;;;17.98;4.07;;;14.20;99.90;;;;;;5085129;28;20806;-68
2022/06/09 03:14:24;;;;;;;13.75;4.05;;;14.20;99.90;;;;;;5087710;28;20032;-67
2022/06/09 03:16:50;;;;;;;16.10;3.95;;;14.20;99.90;;;;;;5086393;28;20028;-67
2022/06/09 03:19:16;;;;;;;12.23;4.03;;;14.20;99.90;;;;;;5086425;28;20024;-67
2022/06/09 03:21:42;;;;;;;22.08;4.95;;;14.20;99.90;;;;;;5087776;28;20474;-66
2022/06/09 03:24:08;;;;;;;18.00;4.70;;;14.20;99.90;;;;;;5088480;28;20034;-66
2022/06/09 03:26:33;;;;;;;18.77;5.38;;;14.20;99.90;;;;;;5087708;28;20115;-67
2022/06/09 03:29:00;;;;;;;19.23;5.70;;;14.10;99.90;;;;;;5086404;28;20048;-66
2022/06/09 03:31:26;;;;;;;21.83;6.75;;;14.00;99.90;;;;;;5087315;28;20024;-66
2022/06/09 03:33:51;;;;;;;19.02;6.18;;;13.90;99.90;;;;;;5087148;28;20944;-68
2022/06/09 03:36:17;;;;;;;19.10;5.75;;;13.90;99.90;;;;;;5087357;28;20020;-68
2022/06/09 03:38:43;;;;;;;20.85;6.43;;;13.90;99.90;;;;;;5088981;28;20028;-68
2022/06/09 03:41:09;;;;;;;29.38;7.30;;;13.80;99.90;;;;;;5082951;22;20517;-64
2022/06/09 03:43:35;;;;;;;18.75;6.15;;;13.80;99.90;;;;;;5058468;28;20036;-64
2022/06/09 03:46:01;;;;;;;21.77;7.63;;;13.80;99.90;;;;;;5054254;28;20017;-64
2022/06/09 03:48:27;;;;;;;20.52;6.75;;;13.80;99.90;;;;;;5050820;28;20025;-64
2022/06/09 03:50:53;;;;;;;18.58;6.47;;;13.80;99.90;;;;;;5040522;28;20082;-64
2022/06/09 03:53:19;;;;;;;23.25;6.97;;;13.90;99.90;;;;;;5035919;28;20343;-63
2022/06/09 03:55:44;;;;;;;18.58;7.20;;;13.80;99.90;;;;;;5041442;28;20048;-65
2022/06/09 03:58:10;;;;;;;20.45;6.20;;;13.80;99.90;;;;;;5036546;28;20117;-65
2022/06/09 04:00:36;;;;;;;22.50;7.05;;;13.90;99.90;;;;;;5031786;28;20068;-64
2022/06/09 04:03:03;;;;;;;19.42;7.35;;;13.90;99.90;;;;;;5037278;28;20029;-64
2022/06/09 04:05:28;;;;;;;22.77;6.53;;;13.90;99.90;;;;;;5031034;28;20113;-64
2022/06/09 04:07:55;;;;;;;25.92;8.15;;;13.90;99.90;;;;;;5039954;28;20116;-64
2022/06/09 04:10:24;;;;;;;23.50;6.40;;;13.90;99.90;;;;;;5036827;28;20021;-63
2022/06/09 04:12:49;;;;;;;15.35;6.57;;;13.90;99.90;;;;;;5039890;28;20025;-64
2022/06/09 04:15:16;;;;;;;17.92;6.53;;;13.90;99.90;;;;;;5029189;28;20116;-64
2022/06/09 04:17:43;;;;;;;27.23;7.80;;;14.00;99.90;;;;;;5043286;28;20032;-65
2022/06/09 04:20:10;;;;;;;25.73;6.43;;;14.00;99.90;;;;;;5035294;28;20037;-64
2022/06/09 04:22:36;;;;;;;20.30;7.57;;;14.00;99.90;;;;;;5036651;28;20021;-64
2022/06/09 04:25:02;;;;;;;21.95;7.65;;;14.00;99.90;;;;;;5035404;28;20092;-64
2022/06/09 04:27:27;;;;;;;27.13;7.70;;;14.00;99.90;;;;;;5049160;28;20029;-65
2022/06/09 04:29:53;;;;;;;17.35;7.18;;;14.00;99.90;;;;;;5042188;28;20083;-65
2022/06/09 04:32:18;;;;;;;21.48;6.47;;;14.00;99.90;;;;;;5033998;28;20052;-64
2022/06/09 04:34:44;;;;;;;25.17;6.70;;;14.00;99.90;;;;;;5038036;28;20024;-65
2022/06/09 04:37:10;;;;;;;22.42;6.97;;;14.10;99.90;;;;;;5041976;28;20391;-65
2022/06/09 04:39:35;;;;;;;21.05;6.70;;;14.10;99.90;;;;;;5045216;28;20137;-65
2022/06/09 04:42:01;;;;;;;28.83;7.32;;;14.10;99.90;;;;;;5046179;28;20043;-64
2022/06/09 04:44:26;;;;;;;20.40;7.32;;;14.10;99.90;;;;;;5049228;28;20032;-64
2022/06/09 04:46:52;;;;;;;19.83;6.88;;;14.10;99.90;;;;;;5036918;28;20034;-65
2022/06/09 04:49:18;;;;;;;20.63;6.47;;;14.10;99.90;;;;;;5037786;28;20131;-65
2022/06/09 04:51:43;;;;;;;21.20;7.47;;;14.10;99.90;;;;;;5037361;28;20840;-65
2022/06/09 04:54:09;;;;;;;12.52;6.78;;;14.10;99.90;;;;;;5034026;28;20029;-64
2022/06/09 04:56:36;;;;;;;20.73;7.45;;;14.10;99.90;;;;;;5038193;28;20029;-65
2022/06/09 04:59:02;;;;;;;19.60;7.22;;;14.20;99.90;;;;;;5043232;28;20557;-64
2022/06/09 05:01:30;;;;;;;24.38;7.43;;;14.20;99.90;;;;;;5044712;28;20041;-62
2022/06/09 05:03:56;;;;;;;25.63;6.38;;;14.30;99.90;;;;;;5032039;28;20028;-65
2022/06/09 05:06:24;;;;;;;17.95;6.72;;;14.30;99.90;;;;;;5038818;28;20029;-65
2022/06/09 05:08:52;;;;;;;23.05;7.00;;;14.40;99.90;;;;;;5034557;28;20047;-65
2022/06/09 05:11:18;;;;;;;24.60;8.18;;;14.40;99.90;;;;;;5028708;28;20091;-65
2022/06/09 05:13:44;;;;;;;25.30;7.28;;;14.40;99.90;;;;;;5034454;28;20032;-65
2022/06/09 05:16:10;;;;;;;21.25;7.32;;;14.40;99.90;;;;;;5027924;28;20034;-65
2022/06/09 05:18:37;;;;;;;26.00;7.18;;;14.50;99.90;;;;;;5039797;28;20422;-65
2022/06/09 05:21:03;;;;;;;22.98;7.03;;;14.70;99.90;;;;;;5027105;28;20025;-65
2022/06/09 05:23:29;;;;;;;35.03;8.27;;;14.80;99.90;;;;;;5038082;28;20036;-65
2022/06/09 05:25:57;;;;;;;25.05;6.85;;;15.00;99.90;;;;;;5036005;28;20044;-65
2022/06/09 05:28:25;;;;;;;21.77;7.15;;;15.10;99.90;;;;;;5032099;28;20479;-65
2022/06/09 05:30:50;;;;;;;16.77;6.93;;;15.10;99.90;;;;;;5034274;28;20678;-65
2022/06/09 05:33:16;;;;;;;20.88;6.68;;;15.10;99.90;;;;;;5047330;28;20112;-64
2022/06/09 05:35:42;;;;;;;19.40;6.90;;;15.10;99.90;;;;;;5040516;28;20152;-65
2022/06/09 05:46:25;;;;;;;24.35;6.85;;;15.00;99.90;;;;;;5038399;28;20036;-64
2022/06/09 05:48:51;;;;;;;34.00;8.45;;;15.00;99.90;;;;;;5043523;28;20049;-65
2022/06/09 05:51:17;;;;;;;27.23;7.38;;;15.00;99.90;;;;;;5049116;28;20024;-64
2022/06/09 05:53:44;;;;;;;24.27;8.45;;;15.00;99.90;;;;;;5028897;28;20025;-63
2022/06/09 05:56:09;;;;;;;21.83;7.57;;;15.00;99.90;;;;;;5044572;28;20102;-65
2022/06/09 05:58:36;;;;;;;32.72;8.00;;;14.90;99.90;;;;;;5046110;28;20562;-65
2022/06/09 06:01:06;;;;;;;22.25;7.30;;;15.00;99.90;;;;;;5040679;28;20033;-65
2022/06/09 06:03:32;;;;;;;27.95;8.00;;;15.00;99.90;;;;;;5050275;28;20103;-64
2022/06/09 06:08:43;;;;;;;26.52;7.55;;;14.90;99.90;;;;;;5040224;28;20459;-65
2022/06/09 06:11:08;;;;;;;26.70;8.32;;;15.00;99.90;;;;;;5040487;28;20028;-64
2022/06/09 06:13:34;;;;;;;25.48;8.68;;;15.10;99.90;;;;;;5029610;28;20040;-65
2022/06/09 06:15:59;;;;;;;26.40;7.47;;;15.10;99.90;;;;;;5042735;28;20039;-64
2022/06/09 06:18:26;;;;;;;26.98;8.77;;;15.20;99.90;;;;;;5039771;28;20070;-65
2022/06/09 06:20:53;;;;;;;26.13;8.25;;;15.20;99.90;;;;;;5041416;28;20399;-64
2022/06/09 06:23:19;;;;;;;30.70;8.65;;;15.20;99.90;;;;;;5033447;28;20014;-64
2022/06/09 06:25:44;;;;;;;19.45;8.57;;;15.30;99.90;;;;;;5047112;28;20074;-64
2022/06/09 06:28:10;;;;;;;25.40;9.32;;;15.30;99.90;;;;;;5040398;28;20037;-65
2022/06/09 06:30:35;;;;;;;30.73;9.07;;;15.40;99.90;;;;;;5046387;28;20117;-65
2022/06/09 06:33:01;;;;;;;24.20;8.57;;;15.50;99.90;;;;;;5041895;28;20104;-64
2022/06/09 06:35:26;;;;;;;23.17;9.07;;;15.60;99.90;;;;;;5030927;28;20047;-64
2022/06/09 06:37:52;;;;;;;26.40;9.23;;;15.70;99.90;;;;;;5041284;28;20029;-65
2022/06/09 06:40:18;;;;;;;20.10;7.95;;;15.70;99.90;;;;;;5043310;28;20108;-63
2022/06/09 06:42:43;;;;;;;19.48;7.47;;;15.80;99.90;;;;;;5044054;28;20112;-64
2022/06/09 06:45:13;;;;;;;20.98;8.35;;;15.90;99.90;;;;;;5042897;28;20026;-65
2022/06/09 06:47:39;;;;;;;23.48;8.23;;;15.90;99.90;;;;;;5043946;28;20450;-64
2022/06/09 06:50:06;;;;;;;22.90;7.93;;;16.00;99.90;;;;;;5036381;28;20070;-64
2022/06/09 06:52:31;;;;;;;16.67;7.07;;;16.00;99.90;;;;;;5032847;28;20507;-65
2022/06/09 06:54:57;;;;;;;26.55;8.52;;;16.00;99.90;;;;;;5047726;28;20071;-64
2022/06/09 06:57:22;;;;;;;27.27;7.70;;;15.90;99.90;;;;;;5035745;28;20053;-64
2022/06/09 06:59:48;;;;;;;15.88;6.78;;;16.00;99.90;;;;;;5033513;28;20029;-64
2022/06/09 07:02:13;;;;;;;25.65;8.07;;;16.00;99.90;;;;;;5042040;28;20028;-65
2022/06/09 07:04:39;;;;;;;20.55;7.15;;;15.90;99.90;;;;;;5042001;28;20029;-62
2022/06/09 07:07:04;;;;;;;20.08;7.47;;;16.00;99.90;;;;;;5040982;28;20036;-64
2022/06/09 07:09:30;;;;;;;20.85;8.25;;;15.90;99.90;;;;;;5039554;28;20030;-63
2022/06/09 07:11:56;;;;;;;19.40;7.80;;;15.90;99.90;;;;;;5040637;28;20139;-64
2022/06/09 07:14:21;;;;;;;26.35;6.82;;;16.00;99.90;;;;;;5051417;28;20025;-66
2022/06/09 07:16:47;;;;;;;20.73;7.75;;;16.10;99.90;;;;;;5028994;28;20036;-64
2022/06/09 07:19:15;;;;;;;21.42;7.82;;;16.00;99.90;;;;;;5040852;28;20483;-65
2022/06/09 07:21:41;;;;;;;25.30;8.10;;;16.00;99.90;;;;;;5039373;28;20031;-64
2022/06/09 07:24:06;;;;;;;16.95;7.13;;;16.10;99.90;;;;;;5046310;28;20531;-64
2022/06/09 07:26:32;;;;;;;17.58;7.82;;;16.10;99.90;;;;;;5038450;28;20033;-64
2022/06/09 07:28:57;;;;;;;14.20;6.40;;;16.10;99.90;;;;;;5042764;28;20487;-64
2022/06/09 07:31:23;;;;;;;23.90;8.23;;;16.20;99.90;;;;;;5035741;28;20105;-64
2022/06/09 07:33:49;;;;;;;20.90;7.15;;;16.20;99.90;;;;;;5047616;28;20033;-65
2022/06/09 07:36:19;;;;;;;25.35;7.53;;;16.10;99.90;;;;;;5045328;28;20029;-62
2022/06/09 07:38:45;;;;;;;27.10;7.07;;;16.20;99.90;;;;;;5045223;28;20045;-62
2022/06/09 07:41:10;;;;;;;21.38;7.35;;;16.30;99.90;;;;;;5047490;28;20037;-63
2022/06/09 07:43:36;;;;;;;17.33;7.10;;;16.30;99.90;;;;;;5043894;28;20040;-63
2022/06/09 07:46:02;;;;;;;19.15;7.03;;;16.10;99.90;;;;;;5050013;28;20033;-63
2022/06/09 07:48:28;;;;;;;21.33;7.35;;;16.20;99.90;;;;;;5046723;28;20036;-63
2022/06/09 07:50:54;;;;;;;18.05;7.22;;;16.20;99.90;;;;;;5045619;28;20040;-64
2022/06/09 07:53:21;;;;;;;20.92;8.02;;;16.30;99.90;;;;;;5039675;28;20025;-64
2022/06/09 07:55:48;;;;;;;17.85;8.10;;;16.30;99.90;;;;;;5045592;28;20136;-64
2022/06/09 07:58:14;;;;;;;24.35;8.48;;;16.30;99.90;;;;;;5028491;28;20024;-60
2022/06/09 08:00:40;;;;;;;18.30;7.35;;;16.30;99.90;;;;;;5036717;28;20034;-63
2022/06/09 08:03:07;;;;;;;19.63;7.00;;;16.30;99.90;;;;;;5045079;28;20037;-63
2022/06/09 08:05:33;;;;;;;21.67;8.23;;;16.20;99.90;;;;;;5046326;28;20025;-63
2022/06/09 08:07:59;;;;;;;26.40;7.88;;;16.20;99.90;;;;;;5040289;28;20025;-60
2022/06/09 08:10:27;;;;;;;25.65;8.77;;;16.20;99.90;;;;;;5047442;28;20416;-63
2022/06/09 08:12:56;;;;;;;18.05;8.05;;;16.30;99.90;;;;;;5044487;28;20498;-60
2022/06/09 08:15:24;;;;;;;17.08;7.40;;;16.20;99.90;;;;;;5043550;28;20048;-63
2022/06/09 08:17:54;;;;;;;20.25;7.32;;;16.20;99.90;;;;;;5033898;28;20666;-63
2022/06/09 08:20:21;;;;;;;19.15;7.10;;;16.20;99.90;;;;;;5042039;28;20105;-63
2022/06/09 08:22:47;;;;;;;20.83;7.97;;;16.30;99.90;;;;;;5039184;28;20017;-63
2022/06/09 08:25:16;;;;;;;20.35;8.65;;;16.40;99.90;;;;;;5042458;28;20376;-64
2022/06/09 08:27:42;;;;;;;20.98;7.18;;;16.40;99.90;;;;;;5040982;28;20491;-63
2022/06/09 08:30:10;;;;;;;21.83;7.68;;;16.50;99.90;;;;;;5048808;28;20175;-62
2022/06/09 08:32:37;;;;;;;16.42;8.18;;;16.50;99.90;;;;;;5047253;28;20033;-64
2022/06/09 08:35:04;;;;;;;23.85;6.75;;;16.70;99.90;;;;;;5039176;28;20048;-63
2022/06/09 08:37:30;;;;;;;21.95;7.20;;;16.60;99.90;;;;;;5038716;28;20038;-63
2022/06/09 08:39:55;;;;;;;20.02;7.28;;;16.80;99.90;;;;;;5046169;28;20032;-62
2022/06/09 08:42:44;;;;;;;26.02;7.57;;;16.70;99.90;;;;;;5029394;28;20028;-63
2022/06/09 08:45:15;;;;;;;25.25;7.88;;;16.60;99.90;;;;;;5039368;28;20107;-63
2022/06/09 08:47:49;;;;;;;18.25;6.68;;;16.60;99.90;;;;;;5046997;28;20667;-63
2022/06/09 08:50:21;;;;;;;;;;;16.80;99.90;;;;;;5042788;28;20028;-64
2022/06/09 08:52:58;;;;;;;17.77;6.43;;;16.80;99.90;;;;;;5040803;28;19957;-64
2022/06/09 08:55:29;;;;;;;26.45;6.80;;;16.70;99.90;;;;;;5048757;28;20090;-64
2022/06/09 08:58:20;;;;;;;15.82;7.15;;;16.80;99.90;;;;;;5031058;28;20037;-63
2022/06/09 09:01:02;;;;;;;21.92;6.38;;;16.70;99.90;;;;;;5027161;28;20095;-64
2022/06/09 09:03:41;;;;;;;19.20;6.60;;;16.60;99.90;;;;;;5039837;28;20107;-64
2022/06/09 09:06:25;;;;;;;18.17;5.97;;;16.50;99.90;;;;;;5045462;28;20116;-63
2022/06/09 09:08:51;;;;;;;18.00;6.77;;;16.50;99.90;;;;;;5040296;28;20029;-65
2022/06/09 09:11:58;;;;;;;12.73;5.38;;;16.50;99.90;;;;;;5046874;28;20025;-62
2022/06/09 09:14:53;;;;;;;18.40;6.72;;;16.40;99.90;;;;;;5049834;28;20032;-63
2022/06/09 09:17:37;;;;;;;14.02;5.63;;;16.50;99.90;;;;;;5028688;28;20047;-63
2022/06/09 09:20:20;;;;;;;17.05;6.57;;;16.50;99.90;;;;;;5035227;28;20033;-64
2022/06/09 09:23:28;;;;;;;12.18;5.97;;;16.50;99.90;;;;;;5037968;28;20040;-62
2022/06/09 09:26:21;;;;;;;21.60;6.43;;;16.60;99.90;;;;;;4996818;28;20483;-63
2022/06/09 09:29:12;;;;;;;16.27;5.72;;;16.70;99.90;;;;;;5042826;28;20021;-63
2022/06/09 09:31:47;;;;;;;25.60;6.20;;;17.00;99.90;;;;;;5033215;28;20495;-64
2022/06/09 09:34:17;;;;;;;21.17;4.97;;;17.20;99.90;;;;;;5039870;28;20073;-63
2022/06/09 09:36:46;;;;;;;23.00;5.55;;;17.30;99.90;;;;;;5043673;28;20036;-63
2022/06/09 09:39:17;;;;;;;15.07;5.03;;;17.20;99.90;;;;;;5038991;28;20033;-64
2022/06/09 09:41:44;;;;;;;13.48;5.50;;;17.30;99.90;;;;;;5078271;22;20068;-56
2022/06/09 09:44:17;;;;;;;25.23;4.97;;;17.60;99.90;;;;;;5088399;28;20028;-57
2022/06/09 09:46:50;;;;;;;13.35;4.90;;;17.70;99.90;;;;;;5086352;28;20043;-60
2022/06/09 09:49:29;;;;;;;13.80;4.85;;;17.60;99.90;;;;;;5088261;28;20439;-55
2022/06/09 09:51:56;;;;;;;16.48;5.57;;;17.90;99.90;;;;;;5070994;28;20078;-56
2022/06/09 09:54:30;;;;;;;12.40;4.60;;;17.70;99.90;;;;;;5068184;28;20020;-55
2022/06/09 09:57:15;;;;;;;12.02;3.72;;;17.80;99.90;;;;;;5069606;28;20575;-55
2022/06/09 09:59:53;;;;;;;15.25;4.90;;;17.90;99.90;;;;;;5066180;28;20498;-55
2022/06/09 10:08:40;;;;;;;19.00;5.00;;;18.10;99.90;;;;;;5063429;28;20039;-57
2022/06/09 10:14:31;;;;;;;20.05;4.57;;;18.30;99.90;;;;;;5064731;28;20043;-56
2022/06/09 10:16:58;;;;;;;11.63;3.83;;;18.50;99.90;;;;;;5066355;28;20103;-54
2022/06/09 10:19:27;;;;;;;11.38;4.13;;;18.80;99.90;;;;;;5068988;28;20020;-57
2022/06/09 10:21:59;;;;;;;13.25;3.53;;;19.10;99.90;;;;;;5066705;28;20056;-55
2022/06/09 10:24:59;;;;;;;12.07;3.33;;;19.10;99.90;;;;;;5066802;28;20470;-55
2022/06/09 10:27:34;;;;;;;16.23;3.70;;;18.90;99.90;;;;;;5059120;28;20119;-56
2022/06/09 10:30:05;;;;;;;18.75;4.07;;;18.70;99.90;;;;;;5064883;28;20483;-58
2022/06/09 10:32:47;;;;;;;10.98;3.63;;;18.60;99.90;;;;;;5066995;28;20044;-55
2022/06/09 10:35:25;;;;;;;10.35;3.88;;;18.80;99.90;;;;;;5066547;28;20086;-58
2022/06/09 10:38:01;;;;;;;17.35;5.30;;;19.00;99.90;;;;;;5065455;28;20025;-57
2022/06/09 10:40:44;;;;;;;13.48;4.25;;;19.30;99.90;;;;;;5068178;28;20032;-58
2022/06/09 10:43:30;;;;;;;11.85;3.90;;;19.20;99.90;;;;;;5065758;28;20029;-56
2022/06/09 10:45:56;;;;;;;11.25;3.72;;;19.40;99.90;;;;;;5067155;28;20667;-57
2022/06/09 10:57:15;;;;;;;8.93;3.10;;;19.70;99.90;;;;;;5068711;28;20027;-58
2022/06/09 10:59:44;;;;;;;14.48;3.20;;;19.90;99.90;;;;;;5070271;28;20071;-56
2022/06/09 11:02:21;;;;;;;14.45;3.05;;;19.60;99.90;;;;;;5069957;28;20154;-58
2022/06/09 11:04:48;;;;;;;12.10;3.15;;;19.40;99.90;;;;;;5072250;28;20123;-57
2022/06/09 11:07:27;;;;;;;6.53;1.85;;;19.40;99.90;;;;;;5071005;28;20036;-55
2022/06/09 11:10:02;;;;;;;5.55;1.67;;;19.90;99.90;;;;;;5072517;28;20379;-51
2022/06/09 11:12:37;;;;;;;12.27;2.85;;;20.30;99.90;;;;;;5070522;28;20025;-55
2022/06/09 11:15:48;;;;;;;5.00;2.30;;;20.50;99.90;;;;;;5072310;28;20142;-55
2022/06/09 11:18:38;;;;;;;11.38;1.95;;;21.00;99.90;;;;;;5067348;28;20039;-57
2022/06/09 11:21:03;;;;;;;10.98;2.33;;;20.90;99.90;;;;;;5066233;28;20099;-55
2022/06/09 11:24:08;;;;;;;6.65;2.55;;;20.80;99.90;;;;;;5068259;28;20136;-56
2022/06/09 11:26:54;;;;;;;14.20;2.70;;;20.90;99.90;;;;;;5069610;28;20032;-53
2022/06/09 11:29:54;;;;;;;7.53;2.05;;;20.90;99.90;;;;;;5063462;28;20486;-56
2022/06/09 11:32:30;;;;;;;7.25;1.73;;;20.80;99.90;;;;;;5068817;28;20200;-55
2022/06/09 11:35:33;;;;;;;9.55;2.05;;;21.30;99.90;;;;;;5065403;28;20040;-56
2022/06/09 11:38:17;;;;;;;7.78;2.05;;;21.10;99.90;;;;;;5071191;28;20039;-57
2022/06/09 11:41:11;;;;;;;9.00;2.25;;;21.10;99.90;;;;;;5067759;28;20068;-58
2022/06/09 11:43:50;;;;;;;7.30;2.58;;;20.80;99.90;;;;;;5067646;28;20041;-54
2022/06/09 11:46:24;;;;;;;9.45;2.30;;;20.80;99.90;;;;;;5069653;28;20025;-55
2022/06/09 11:48:55;;;;;;;11.93;2.97;;;20.60;99.90;;;;;;5070515;28;20024;-52
2022/06/09 11:51:25;;;;;;;11.73;2.90;;;20.80;99.90;;;;;;5069705;28;20552;-52
2022/06/09 11:53:57;;;;;;;17.42;2.63;;;20.70;99.90;;;;;;5070926;28;20054;-56
2022/06/09 11:56:34;;;;;;;12.48;2.80;;;20.50;99.90;;;;;;5068934;28;20031;-55
2022/06/09 11:59:11;;;;;;;8.90;1.88;;;20.70;99.90;;;;;;5066858;28;20080;-54
2022/06/09 12:01:39;;;;;;;7.35;2.60;;;20.90;99.90;;;;;;5067815;28;20047;-58
2022/06/09 12:04:18;;;;;;;10.52;2.20;;;21.40;99.90;;;;;;5074369;28;20074;-57
2022/06/09 12:06:56;;;;;;;11.00;2.00;;;21.80;99.90;;;;;;5068261;28;20032;-55
2022/06/09 12:09:46;;;;;;;13.18;2.42;;;21.60;99.90;;;;;;5067235;28;20031;-52
2022/06/09 12:12:36;;;;;;;8.93;2.58;;;21.80;99.90;;;;;;5069741;28;20088;-59
2022/06/09 12:15:26;;;;;;;6.00;1.92;;;21.90;99.90;;;;;;5071550;28;20039;-58
2022/06/09 12:18:06;;;;;;;8.57;2.00;;;22.10;99.90;;;;;;5068794;28;20034;-59
2022/06/09 12:20:43;;;;;;;9.65;2.25;;;22.10;99.90;;;;;;5067591;28;20025;-55
2022/06/09 12:23:27;;;;;;;5.13;1.98;;;21.70;99.90;;;;;;5065234;28;20048;-54
2022/06/09 12:26:18;;;;;;;7.63;1.90;;;21.30;99.90;;;;;;5065973;28;20089;-58
2022/06/09 12:28:52;;;;;;;9.50;2.53;;;21.40;99.90;;;;;;5056416;28;20036;-54
2022/06/09 12:31:21;;;;;;;9.20;2.53;;;21.20;99.90;;;;;;5072861;28;20802;-57
2022/06/09 12:34:05;;;;;;;13.15;2.60;;;20.80;99.90;;;;;;5066985;28;20021;-59
2022/06/09 12:36:57;;;;;;;11.80;2.53;;;20.70;99.90;;;;;;5065457;28;20036;-56
2022/06/09 12:39:37;;;;;;;10.48;2.72;;;20.80;99.90;;;;;;5063870;28;20366;-55
2022/06/09 12:42:19;;;;;;;8.82;3.28;;;20.80;99.90;;;;;;5066843;28;20044;-53
2022/06/09 12:45:00;;;;;;;12.25;2.55;;;20.70;99.90;;;;;;5067418;28;20025;-51
2022/06/09 12:47:26;;;;;;;7.57;2.10;;;20.40;99.90;;;;;;5067593;28;20021;-57
2022/06/09 12:49:55;;;;;;;7.68;2.42;;;20.40;99.90;;;;;;5068264;28;20025;-58
2022/06/09 12:52:40;;;;;;;6.43;2.20;;;20.20;99.90;;;;;;5073539;28;20039;-57
2022/06/09 12:55:16;;;;;;;16.17;2.80;;;20.20;99.90;;;;;;5058626;28;20024;-53
2022/06/09 12:57:46;;;;;;;9.32;2.05;;;20.10;99.90;;;;;;5060140;28;20562;-53
2022/06/09 13:00:15;;;;;;;10.77;2.17;;;20.30;99.90;;;;;;5066593;28;20021;-57
2022/06/09 13:02:42;;;;;;;7.60;2.13;;;20.50;99.90;;;;;;5067225;28;20498;-57
2022/06/09 13:05:19;;;;;;;7.20;2.28;;;20.60;99.90;;;;;;5063635;28;20037;-56
2022/06/09 13:07:53;;;;;;;6.07;2.13;;;20.50;99.90;;;;;;5064652;28;20036;-58
2022/06/09 13:10:28;;;;;;;4.05;1.50;;;20.30;99.90;;;;;;5061030;28;20031;-53
2022/06/09 13:13:03;;;;;;;2.10;1.00;;;19.90;99.90;;;;;;5059467;28;20133;-59
2022/06/09 13:15:40;;;;;;;4.97;1.50;;;19.30;99.90;;;;;;5060508;28;20029;-56
2022/06/09 13:18:11;;;;;;;2.15;0.90;;;18.80;99.90;;;;;;5062554;28;20024;-58
2022/06/09 13:20:39;;;;;;;6.55;1.30;;;18.40;99.90;;;;;;5063647;28;20029;-55
2022/06/09 13:23:11;;;;;;;7.95;1.65;;;18.20;99.90;;;;;;5059858;28;20025;-56
2022/06/09 13:25:37;;;;;;;2.13;1.63;;;18.10;99.90;;;;;;5061559;28;20040;-56
2022/06/09 13:28:04;;;;;;;5.63;1.25;;;17.80;99.90;;;;;;5066728;28;20029;-57